• Join FlightAware (Why Join?)
  • Login
  • US Flag 
06:06AM EDT


 

Airport Tracker/Info


-or-


 

Live Flight TrackerFlight Track Log ✈ N1ER ✈ 23-Dec-2013 ✈ M98 - KCBG

Flight Track Log - Related Links

Times and Time Zones

All times are in EST time to prevent confusion due to time zone crossing. See the N1ER flight status page for this flight to view local times or setup timezone preferences in your user account.

Time Position Orientation Groundspeed Altitude Reporting Facility
EST Latitude Longitude Course Direction KTS MPH feet Rate Location/Type
09:49AM 45.4428 -93.2086 330° Northwest 78 90 2,400  Level Minneapolis Center
09:50AM 45.4622 -93.2244 330° Northwest 81 93 2,500  Climbing Minneapolis Center
09:51AM 45.4836 -93.2300 350° North 79 91 2,400  Descending Minneapolis Center
09:52AM 45.4875 -93.2597 281° West 99 114 2,500 240 Climbing Minneapolis Center
09:53AM 45.4578 -93.2544 173° South 108 124 3,000 240 Climbing Minneapolis Center
09:54AM 45.4333 -93.2122 130° Southeast 112 129 3,000  Level Minneapolis Center
09:55AM 45.4017 -93.1981 163° South 118 136 3,000  Level Minneapolis Center
10:16AM 45.4833 -93.2667 North 141 162 3,100  Climbing Minneapolis TRACON
10:17AM 45.5575 -93.2642 North  Level Estimated
10:17AM 45.4500 -93.2667 180° South 135 155 3,100  Level Minneapolis TRACON
10:18AM 45.5575 -93.2642 North  Level Estimated
10:18AM 45.4167 -93.2500 161° South 138 159 3,100  Level Minneapolis TRACON
10:19AM 45.5575 -93.2642 North  Level Estimated
10:20AM 45.3658 -93.2150 154° Southeast 131 151 3,100  Level Minneapolis Center
10:21AM 45.3447 -93.1747 127° Southeast 127 146 3,100  Level Minneapolis Center
10:22AM 45.3219 -93.1361 130° Southeast 129 148 3,100  Level Minneapolis Center
10:23AM 45.2986 -93.0994 132° Southeast 127 146 3,100  Level Minneapolis Center
10:24AM 45.2744 -93.0622 133° Southeast 128 147 3,100  Level Minneapolis Center
10:25AM 45.2500 -93.0250 133° Southeast 128 147 3,100 -60 Level Minneapolis Center
10:26AM 45.2275 -92.9856 129° Southeast 129 148 3,000  Descending Minneapolis Center
10:27AM 45.1936 -92.9492 143° Southeast 130 150 3,100  Climbing Minneapolis Center
10:28AM 45.1542 -92.9472 178° South 138 159 3,100 -60 Level Minneapolis Center
10:29AM 45.1358 -92.9800 232° Southwest 126 145 3,000  Descending Minneapolis Center
10:30AM 45.1464 -93.0167 292° West 102 117 3,100 -180 Climbing Minneapolis Center
10:31AM 45.1386 -93.0583 255° West 108 124 2,700 -300 Descending Minneapolis Center
10:32AM 45.1447 -93.0919 284° West 90 104 2,600 -300 Descending Minneapolis Center
10:33AM 45.1439 -93.1233 268° West 79 91 2,100 -540 Descending Minneapolis Center
10:34AM 45.1442 -93.1561 271° West 83 96 1,600 -540 Descending Minneapolis Center
10:35AM 45.1444 -93.1911 271° West 75 86 1,100 -540 Descending Minneapolis Center